createdAt,value
2018-12-25T00:02:36.267Z,-0.30
2018-12-25T00:05:24.784Z,-0.30
2018-12-25T00:08:13.303Z,-0.30
2018-12-25T00:10:42.950Z,-0.30
2018-12-25T00:13:31.475Z,-0.30
2018-12-25T00:16:19.700Z,-0.30
2018-12-25T00:19:08.047Z,-0.30
2018-12-25T00:21:56.260Z,-0.30
2018-12-25T00:24:44.767Z,-0.40
2018-12-25T00:27:32.975Z,-0.30
2018-12-25T00:30:21.568Z,-0.40
2018-12-25T00:33:11.081Z,-0.40
2018-12-25T00:38:34.679Z,-0.40
2018-12-25T00:41:04.321Z,-0.50
2018-12-25T00:43:53.015Z,-0.50
2018-12-25T00:46:41.549Z,-0.50
2018-12-25T00:49:14.758Z,-0.50
2018-12-25T00:55:40.487Z,-0.60
2018-12-25T00:58:28.705Z,-0.60
2018-12-25T01:01:16.943Z,-0.60
2018-12-25T01:04:05.469Z,-0.70
2018-12-25T01:06:53.951Z,-0.70
2018-12-25T01:09:42.777Z,-0.70
2018-12-25T01:12:31.336Z,-0.70
2018-12-25T01:15:19.584Z,-0.70
2018-12-25T01:18:07.792Z,-0.70
2018-12-25T01:20:56.308Z,-0.80
2018-12-25T01:24:03.816Z,-0.80
2018-12-25T01:26:33.363Z,-0.80
2018-12-25T01:29:21.618Z,-0.90
2018-12-25T01:31:51.346Z,-0.90
2018-12-25T01:34:39.952Z,-0.90
2018-12-25T01:37:28.692Z,-0.90
2018-12-25T01:39:57.838Z,-1.00
2018-12-25T01:42:46.347Z,-1.00
2018-12-25T01:45:34.599Z,-1.00
2018-12-25T01:48:23.363Z,-1.00
2018-12-25T01:50:53.330Z,-1.10
2018-12-25T01:53:41.556Z,-1.10
2018-12-25T01:56:10.783Z,-1.10
2018-12-25T02:02:07.018Z,-1.10
2018-12-25T02:04:56.002Z,-1.20
2018-12-25T02:07:44.211Z,-1.20
2018-12-25T02:11:07.865Z,-1.20
2018-12-25T02:14:13.794Z,-1.20
2018-12-25T02:17:02.366Z,-1.20
2018-12-25T02:19:50.849Z,-1.20
2018-12-25T02:22:39.364Z,-1.20
2018-12-25T02:25:27.615Z,-1.20
2018-12-25T02:27:57.043Z,-1.20
2018-12-25T02:30:26.457Z,-1.20
2018-12-25T02:33:14.670Z,-1.30
2018-12-25T02:36:02.938Z,-1.30
2018-12-25T02:38:51.215Z,-1.30
2018-12-25T02:41:58.884Z,-1.30
2018-12-25T02:44:47.121Z,-1.40
2018-12-25T02:47:35.431Z,-1.40
2018-12-25T02:53:54.270Z,-1.50
2018-12-25T02:56:42.953Z,-1.50
2018-12-25T02:59:31.509Z,-1.50
2018-12-25T03:02:20.139Z,-1.50
2018-12-25T03:05:08.707Z,-1.50
2018-12-25T03:07:57.672Z,-1.50
2018-12-25T03:10:26.775Z,-1.50
2018-12-25T03:12:56.300Z,-1.50
2018-12-25T03:15:44.594Z,-1.50
2018-12-25T03:18:14.067Z,-1.50
2018-12-25T03:21:02.320Z,-1.50
2018-12-25T03:23:50.923Z,-1.50
2018-12-25T03:26:32.317Z,-1.60
2018-12-25T03:29:13.427Z,-1.60
2018-12-25T03:31:54.512Z,-1.70
2018-12-25T03:34:35.605Z,-1.70
2018-12-25T03:37:05.086Z,-1.70
2018-12-25T03:39:53.574Z,-1.70
2018-12-25T03:42:42.137Z,-1.80
2018-12-25T03:49:14.529Z,-1.80
2018-12-25T03:52:03.624Z,-1.80
2018-12-25T03:54:51.887Z,-1.80
2018-12-25T03:57:40.435Z,-1.90
2018-12-25T04:00:47.932Z,-1.90
2018-12-25T04:06:35.425Z,-2.00
2018-12-25T04:09:23.905Z,-2.00
2018-12-25T04:12:12.153Z,-2.00
2018-12-25T04:15:00.636Z,-2.00
2018-12-25T04:17:48.880Z,-2.00
2018-12-25T04:20:37.105Z,-2.00
2018-12-25T04:26:26.041Z,-1.90
2018-12-25T04:29:06.779Z,-1.90
2018-12-25T04:31:48.104Z,-1.90
2018-12-25T04:38:00.387Z,-1.90
2018-12-25T04:40:39.644Z,-1.90
2018-12-25T04:47:02.192Z,-1.80
2018-12-25T04:49:50.743Z,-1.80
2018-12-25T04:52:39.821Z,-1.80
2018-12-25T04:55:28.392Z,-1.70
2018-12-25T04:57:57.539Z,-1.70
2018-12-25T05:00:26.645Z,-1.60
2018-12-25T05:03:14.901Z,-1.60
2018-12-25T05:06:03.114Z,-1.60
2018-12-25T05:08:32.856Z,-1.50
2018-12-25T05:11:01.968Z,-1.50
2018-12-25T05:13:50.211Z,-1.50
2018-12-25T05:16:38.420Z,-1.50
2018-12-25T05:19:26.665Z,-1.40
2018-12-25T05:22:14.870Z,-1.40
2018-12-25T05:25:03.448Z,-1.40
2018-12-25T05:27:44.964Z,-1.40
2018-12-25T05:30:14.155Z,-1.30
2018-12-25T05:33:02.405Z,-1.30
2018-12-25T05:36:08.421Z,-1.30
2018-12-25T05:38:56.734Z,-1.30
2018-12-25T05:41:45.500Z,-1.30
2018-12-25T05:44:14.656Z,-1.20
2018-12-25T05:47:03.031Z,-1.20
2018-12-25T05:54:00.331Z,-1.20
2018-12-25T05:56:48.543Z,-1.20
2018-12-25T05:59:37.051Z,-1.20
2018-12-25T06:02:25.518Z,-1.20
2018-12-25T06:04:54.955Z,-1.20
2018-12-25T06:07:43.165Z,-1.20
2018-12-25T06:13:54.452Z,-1.30
2018-12-25T06:16:23.567Z,-1.30
2018-12-25T06:19:11.806Z,-1.30
2018-12-25T06:21:41.188Z,-1.30
2018-12-25T06:24:29.447Z,-1.30
2018-12-25T06:27:17.915Z,-1.30
2018-12-25T06:30:06.540Z,-1.30
2018-12-25T06:36:02.644Z,-1.40
2018-12-25T06:38:51.249Z,-1.50
2018-12-25T06:41:39.461Z,-1.50
2018-12-25T06:44:27.815Z,-1.50
2018-12-25T06:47:16.395Z,-1.60
2018-12-25T06:50:05.096Z,-1.60
2018-12-25T06:52:53.916Z,-1.60
2018-12-25T06:55:35.023Z,-1.70
2018-12-25T06:58:04.138Z,-1.70
2018-12-25T07:00:52.395Z,-1.70
2018-12-25T07:03:40.647Z,-1.70
2018-12-25T07:06:29.236Z,-1.70
2018-12-25T07:08:58.654Z,-1.70
2018-12-25T07:11:47.183Z,-1.70
2018-12-25T07:14:35.734Z,-1.80
2018-12-25T07:17:24.603Z,-1.80
2018-12-25T07:20:13.454Z,-1.80
2018-12-25T07:23:01.660Z,-1.80
2018-12-25T07:25:50.468Z,-1.90
2018-12-25T07:28:39.092Z,-1.90
2018-12-25T07:31:27.879Z,-1.90
2018-12-25T07:34:16.437Z,-2.00
2018-12-25T07:37:04.938Z,-2.00
2018-12-25T07:39:34.511Z,-2.00
2018-12-25T07:42:23.374Z,-2.00
2018-12-25T07:45:11.687Z,-2.00
2018-12-25T07:48:00.240Z,-2.00
2018-12-25T07:50:48.500Z,-2.00
2018-12-25T07:53:37.155Z,-2.00
2018-12-25T07:56:19.345Z,-2.00
2018-12-25T07:58:59.899Z,-2.10
2018-12-25T08:01:41.134Z,-2.10
2018-12-25T08:04:22.715Z,-2.20
2018-12-25T08:07:03.217Z,-2.20
2018-12-25T08:09:43.927Z,-2.20
2018-12-25T08:12:25.176Z,-2.30
2018-12-25T08:14:54.611Z,-2.30
2018-12-25T08:17:42.831Z,-2.30
2018-12-25T08:20:48.886Z,-2.30
2018-12-25T08:23:18.534Z,-2.30
2018-12-25T08:26:07.188Z,-2.30
2018-12-25T08:31:49.411Z,-2.30
2018-12-25T08:34:18.832Z,-2.20
2018-12-25T08:36:48.491Z,-2.20
2018-12-25T08:39:36.802Z,-2.20
2018-12-25T08:44:54.792Z,-2.20
2018-12-25T08:47:43.318Z,-2.20
2018-12-25T08:50:32.347Z,-2.10
2018-12-25T08:56:54.310Z,-2.20
2018-12-25T09:02:36.523Z,-2.20
2018-12-25T09:05:05.727Z,-2.20
2018-12-25T09:07:35.110Z,-2.20
2018-12-25T09:10:23.688Z,-2.20
2018-12-25T09:13:12.173Z,-2.20
2018-12-25T09:15:41.596Z,-2.20
2018-12-25T09:18:29.816Z,-2.10
2018-12-25T09:21:18.331Z,-2.10
2018-12-25T09:24:45.345Z,-2.00
2018-12-25T09:27:33.895Z,-2.00
2018-12-25T09:30:22.155Z,-2.00
2018-12-25T09:33:10.709Z,-2.00
2018-12-25T09:35:40.208Z,-2.00
2018-12-25T09:38:28.432Z,-2.00
2018-12-25T09:41:16.679Z,-2.00
2018-12-25T09:43:45.807Z,-1.90
2018-12-25T09:46:27.168Z,-1.90
2018-12-25T09:48:56.287Z,-1.80
2018-12-25T09:55:17.699Z,-1.80
2018-12-25T10:00:54.715Z,-1.80
2018-12-25T10:03:43.246Z,-1.70
2018-12-25T10:06:31.496Z,-1.70
2018-12-25T10:12:42.284Z,-1.70
2018-12-25T10:15:12.171Z,-1.70
2018-12-25T10:18:00.447Z,-1.70
2018-12-25T10:23:42.699Z,-1.70
2018-12-25T10:26:31.316Z,-1.70
2018-12-25T10:29:00.950Z,-1.60
2018-12-25T10:31:49.468Z,-1.60
2018-12-25T10:34:37.675Z,-1.50
2018-12-25T10:37:26.275Z,-1.50
2018-12-25T10:39:55.789Z,-1.50
2018-12-25T10:42:44.036Z,-1.50
2018-12-25T10:45:32.884Z,-1.40
2018-12-25T10:48:21.116Z,-1.40
2018-12-25T10:51:09.972Z,-1.30
2018-12-25T10:53:39.154Z,-1.30
2018-12-25T10:56:08.590Z,-1.30
2018-12-25T10:58:56.808Z,-1.30
2018-12-25T11:01:29.428Z,-1.30
2018-12-25T11:04:17.902Z,-1.30
2018-12-25T11:06:47.050Z,-1.30
2018-12-25T11:09:16.165Z,-1.40
2018-12-25T11:11:45.580Z,-1.40
2018-12-25T11:14:33.799Z,-1.40
2018-12-25T11:17:14.306Z,-1.30
2018-12-25T11:19:47.617Z,-1.20
2018-12-25T11:22:19.967Z,-1.20
2018-12-25T11:25:07.098Z,-1.10
2018-12-25T11:27:55.343Z,-1.00
2018-12-25T11:30:24.819Z,-1.00
2018-12-25T11:33:13.065Z,-0.90
2018-12-25T11:36:01.555Z,-0.90
2018-12-25T11:38:30.719Z,-0.80
2018-12-25T11:40:59.855Z,-0.80
2018-12-25T11:43:48.145Z,-0.70
2018-12-25T11:46:36.400Z,-0.70
2018-12-25T11:49:24.616Z,-0.60
2018-12-25T11:52:12.936Z,-0.70
2018-12-25T11:55:01.413Z,-0.70
2018-12-25T11:57:50.083Z,-0.70
2018-12-25T12:00:38.567Z,-0.80
2018-12-25T12:03:26.819Z,-0.80
2018-12-25T12:06:15.292Z,-0.70
2018-12-25T12:09:24.315Z,-0.70
2018-12-25T12:12:12.566Z,-0.70
2018-12-25T12:15:36.348Z,-0.70
2018-12-25T12:18:17.999Z,-0.70
2018-12-25T12:21:18.782Z,-0.70
2018-12-25T12:27:05.616Z,-0.70
2018-12-25T12:29:46.256Z,-0.60
2018-12-25T12:35:31.343Z,-0.50
2018-12-25T12:38:12.251Z,-0.50
2018-12-25T12:40:53.079Z,-0.50
2018-12-25T12:43:34.399Z,-0.50
2018-12-25T12:46:34.724Z,-0.50
2018-12-25T12:49:15.187Z,-0.50
2018-12-25T12:51:56.007Z,-0.50
2018-12-25T12:54:37.017Z,-0.60
2018-12-25T12:57:18.079Z,-0.60
2018-12-25T13:05:36.595Z,-0.70
2018-12-25T13:08:42.655Z,-0.80
2018-12-25T13:11:48.514Z,-0.70
2018-12-25T13:14:36.763Z,-0.70
2018-12-25T13:17:05.951Z,-0.70
2018-12-25T13:19:35.624Z,-0.70
2018-12-25T13:22:04.770Z,-0.60
2018-12-25T13:28:35.523Z,-0.60
2018-12-25T13:34:31.052Z,-0.60
2018-12-25T13:37:00.698Z,-0.50
2018-12-25T13:39:49.023Z,-0.50
2018-12-25T13:42:37.562Z,-0.50
2018-12-25T13:45:06.992Z,-0.40
2018-12-25T13:47:36.130Z,-0.20
2018-12-25T13:50:24.632Z,-0.10
2018-12-25T13:53:49.899Z,-0.10
2018-12-25T13:56:57.401Z,-0.10
2018-12-25T13:59:26.555Z,-0.20
2018-12-25T14:01:56.323Z,-0.30
2018-12-25T14:04:25.736Z,-0.40
2018-12-25T14:06:54.847Z,-0.40
2018-12-25T14:09:43.399Z,-0.50
2018-12-25T14:12:31.607Z,-0.60
2018-12-25T14:15:20.196Z,-0.60
2018-12-25T14:18:01.607Z,-0.60
2018-12-25T14:20:42.407Z,-0.60
2018-12-25T14:23:23.863Z,-0.60
2018-12-25T14:26:05.399Z,-0.60
2018-12-25T14:28:35.351Z,-0.60
2018-12-25T14:31:23.563Z,-0.60
2018-12-25T14:34:12.246Z,-0.60
2018-12-25T14:37:00.731Z,-0.60
2018-12-25T14:39:49.247Z,-0.60
2018-12-25T14:42:37.773Z,-0.60
2018-12-25T14:45:26.357Z,-0.60
2018-12-25T14:48:14.602Z,-0.70
2018-12-25T14:51:02.817Z,-0.70
2018-12-25T14:53:51.066Z,-0.70
2018-12-25T14:56:39.275Z,-0.80
2018-12-25T14:59:27.797Z,-0.80
2018-12-25T15:02:16.007Z,-0.90
2018-12-25T15:05:04.251Z,-0.90
2018-12-25T15:07:52.731Z,-0.90
2018-12-25T15:10:21.878Z,-0.90
2018-12-25T15:13:10.369Z,-0.90
2018-12-25T15:15:58.687Z,-0.90
2018-12-25T15:18:46.947Z,-0.90
2018-12-25T15:21:35.235Z,-0.90
2018-12-25T15:24:23.879Z,-0.90
2018-12-25T15:27:12.499Z,-0.90
2018-12-25T15:30:00.747Z,-0.90
2018-12-25T15:32:49.291Z,-0.90
2018-12-25T15:38:32.016Z,-1.00
2018-12-25T15:41:20.530Z,-1.00
2018-12-25T15:44:09.115Z,-1.00
2018-12-25T15:46:57.332Z,-1.00
2018-12-25T15:49:45.607Z,-1.00
2018-12-25T15:52:14.807Z,-1.10
2018-12-25T15:55:03.426Z,-1.10
2018-12-25T15:57:51.974Z,-1.10
2018-12-25T16:00:40.232Z,-1.10
2018-12-25T16:03:29.080Z,-1.20
2018-12-25T16:06:17.943Z,-1.20
2018-12-25T16:12:02.519Z,-1.20
2018-12-25T16:14:51.078Z,-1.10
2018-12-25T16:17:31.898Z,-1.00
2018-12-25T16:20:01.389Z,-1.00
2018-12-25T16:22:30.847Z,-1.10
2018-12-25T16:25:18.209Z,-1.20
2018-12-25T16:28:07.184Z,-1.20
2018-12-25T16:30:37.051Z,-1.30
2018-12-25T16:33:06.975Z,-1.30
2018-12-25T16:35:55.231Z,-1.30
2018-12-25T16:38:43.448Z,-1.30
2018-12-25T16:41:32.940Z,-1.40
2018-12-25T16:44:21.224Z,-1.40
2018-12-25T16:47:09.475Z,-1.40
2018-12-25T16:53:28.760Z,-1.40
2018-12-25T16:56:17.087Z,-1.50
2018-12-25T16:59:42.107Z,-1.50
2018-12-25T17:02:31.055Z,-1.50
2018-12-25T17:05:19.567Z,-1.50
2018-12-25T17:07:48.675Z,-1.60
2018-12-25T17:10:36.923Z,-1.50
2018-12-25T17:13:25.209Z,-1.60
2018-12-25T17:15:54.691Z,-1.60
2018-12-25T17:18:24.176Z,-1.50
2018-12-25T17:20:54.543Z,-1.50
2018-12-25T17:23:23.683Z,-1.50
2018-12-25T17:26:12.715Z,-1.50
2018-12-25T17:29:01.088Z,-1.40
2018-12-25T17:35:01.353Z,-1.40
2018-12-25T17:37:49.576Z,-1.50
2018-12-25T17:40:37.824Z,-1.50
2018-12-25T17:43:26.579Z,-1.50
2018-12-25T17:45:56.523Z,-1.60
2018-12-25T17:52:21.944Z,-1.70
2018-12-25T17:54:51.331Z,-1.70
2018-12-25T17:57:39.571Z,-1.80
2018-12-25T18:00:27.827Z,-1.80
2018-12-25T18:03:17.063Z,-1.80
2018-12-25T18:06:05.325Z,-1.80
2018-12-25T18:08:53.612Z,-1.90
2018-12-25T18:11:42.220Z,-1.90
2018-12-25T18:14:30.770Z,-1.80
2018-12-25T18:17:18.775Z,-1.80
2018-12-25T18:19:55.363Z,-1.80
2018-12-25T18:22:36.092Z,-1.80
2018-12-25T18:25:16.823Z,-1.80
2018-12-25T18:27:57.627Z,-1.80
2018-12-25T18:30:39.244Z,-1.90
2018-12-25T18:33:19.712Z,-1.80
2018-12-25T18:36:00.783Z,-1.80
2018-12-25T18:38:42.272Z,-1.80
2018-12-25T18:41:23.443Z,-1.80
2018-12-25T18:44:04.048Z,-1.80
2018-12-25T18:46:45.658Z,-1.80
2018-12-25T18:49:27.001Z,-1.80
2018-12-25T18:51:56.167Z,-1.80
2018-12-25T18:54:44.683Z,-1.80
2018-12-25T18:57:33.237Z,-1.80
2018-12-25T19:00:21.450Z,-1.80
2018-12-25T19:03:09.702Z,-1.80
2018-12-25T19:05:58.077Z,-1.80
2018-12-25T19:08:46.629Z,-1.80
2018-12-25T19:11:34.915Z,-1.80
2018-12-25T19:14:23.170Z,-1.80
2018-12-25T19:17:03.959Z,-1.80
2018-12-25T19:19:45.468Z,-1.80
2018-12-25T19:22:14.628Z,-1.80
2018-12-25T19:24:44.704Z,-1.80
2018-12-25T19:27:33.331Z,-1.80
2018-12-25T19:30:02.572Z,-1.80
2018-12-25T19:32:51.133Z,-1.80
2018-12-25T19:35:39.410Z,-1.80
2018-12-25T19:38:27.931Z,-1.70
2018-12-25T19:41:16.621Z,-1.70
2018-12-25T19:43:57.211Z,-1.70
2018-12-25T19:46:56.916Z,-1.70
2018-12-25T19:52:42.764Z,-1.70
2018-12-25T19:55:13.347Z,-1.70
2018-12-25T19:58:01.947Z,-1.70
2018-12-25T20:00:50.161Z,-1.70
2018-12-25T20:03:24.318Z,-1.60
2018-12-25T20:10:03.387Z,-1.60
2018-12-25T20:13:11.079Z,-1.60
2018-12-25T20:16:18.435Z,-1.60
2018-12-25T20:19:26.035Z,-1.50
2018-12-25T20:22:33.335Z,-1.50
2018-12-25T20:25:21.028Z,-1.50
2018-12-25T20:28:45.823Z,-1.50
2018-12-25T20:31:52.576Z,-1.50
2018-12-25T20:34:42.619Z,-1.50
2018-12-25T20:38:08.348Z,-1.40
2018-12-25T20:41:15.760Z,-1.40
2018-12-25T20:44:16.824Z,-1.30
2018-12-25T20:51:04.161Z,-1.30
2018-12-25T20:54:28.980Z,-1.10
2018-12-25T20:57:54.016Z,-1.10
2018-12-25T21:01:01.748Z,-1.10
2018-12-25T21:04:09.209Z,-1.10
2018-12-25T21:07:16.566Z,-1.10
2018-12-25T21:10:23.913Z,-1.20
2018-12-25T21:13:31.212Z,-1.10
2018-12-25T21:16:38.980Z,-1.10
2018-12-25T21:23:37.267Z,-1.10
2018-12-25T21:26:45.153Z,-1.10
2018-12-25T21:29:33.418Z,-1.10
2018-12-25T21:32:21.641Z,-1.10
2018-12-25T21:35:32.102Z,-1.20
2018-12-25T21:38:20.899Z,-1.10
2018-12-25T21:41:09.636Z,-1.20
2018-12-25T21:47:05.415Z,-1.10
2018-12-25T21:49:53.671Z,-1.10
2018-12-25T21:52:42.608Z,-1.10
2018-12-25T21:55:31.399Z,-1.10
2018-12-25T21:58:19.831Z,-1.10
2018-12-25T22:01:08.383Z,-1.10
2018-12-25T22:03:38.031Z,-1.10
2018-12-25T22:07:02.708Z,-1.10
2018-12-25T22:12:58.318Z,-1.00
2018-12-25T22:15:27.459Z,-1.00
2018-12-25T22:18:09.633Z,-1.00
2018-12-25T22:20:50.739Z,-1.00
2018-12-25T22:23:31.204Z,-1.00
2018-12-25T22:26:12.747Z,-0.90
2018-12-25T22:28:53.327Z,-0.90
2018-12-25T22:31:34.583Z,-0.90
2018-12-25T22:34:15.868Z,-0.90
2018-12-25T22:36:57.150Z,-0.90
2018-12-25T22:39:37.612Z,-0.90
2018-12-25T22:42:07.400Z,-0.90
2018-12-25T22:44:36.512Z,-0.90
2018-12-25T22:47:25.100Z,-0.90
2018-12-25T22:50:13.575Z,-0.90
2018-12-25T22:52:43.691Z,-0.90
2018-12-25T22:55:36.004Z,-0.90
2018-12-25T22:58:22.289Z,-0.90
2018-12-25T23:04:41.096Z,-0.80
2018-12-25T23:07:28.736Z,-0.70
2018-12-25T23:09:58.187Z,-0.70
2018-12-25T23:21:22.099Z,-0.70
2018-12-25T23:24:10.571Z,-0.70
2018-12-25T23:29:34.182Z,-0.70
2018-12-25T23:32:15.635Z,-0.70
2018-12-25T23:34:56.292Z,-0.70
2018-12-25T23:37:25.454Z,-0.70
2018-12-25T23:40:31.259Z,-0.70
2018-12-25T23:43:19.503Z,-0.70
2018-12-25T23:46:08.319Z,-0.70
2018-12-25T23:48:56.831Z,-0.70
2018-12-25T23:51:45.415Z,-0.70
2018-12-25T23:54:14.805Z,-0.70
2018-12-25T23:57:04.468Z,-0.80
